Aérodrome :
LOGIN :

S'inscrire | Disclaimer

   EN    FR    IT 

 










Légende :    VFR   VFR Marginal   IFR   IFR Intensif   IFR Très Intensif
Visi : 
Plafond : 
>= 8 km
>= 3000ft
5 à 8 km
1000 à 3000 ft
1500m à 5 km
500 à 1000 ft
800 à 1500m
200 à 500 ft
< 800m
< 200 ft
Symboles :   Orages  Brouillard  Fortes neiges  Fortes précipitations  Vent > 20 kt
SIGMETs :   Divers  Orages  Givrage  Turbulence  Onde Orograph.  Cendres Volcan.







- Altitude de l'aérodrome : 326 ft
- Code IATA : LCG
- Voir les cartes d'approche


LECO - A Coruna

DERNIER METAR :
  • 182130Z 17005KT CAVOK 11/11 Q1012 NOSIG

METARs EXPIRÉS :
  • 182100Z 18004KT CAVOK 12/11 Q1012 NOSIG
  • 182030Z 17005KT CAVOK 12/11 Q1012 NOSIG
  • 182000Z 18003KT 9999 SCT032 13/11 Q1012 NOSIG
  • 181930Z 19003KT 9999 FEW032 13/11 Q1012 NOSIG
  • 181900Z 17003KT 150V210 9999 FEW030 13/11 Q1012 NOSIG

TAF TAF LECO
Valide du 18 à 21h jusqu'au 19 à 21h UTC


182000Z 1821/1921 18006KT 9999 SCT030 TX18/1915Z TN10/1905Z
TEMPO 1907/1917 RA
TEMPO 1909/1918 20015G30KT
TEMPO 1918/1921 28010KT BKN010
Pas de NOTAMs connus pour ce terrain.
2 SIGMETs publiés pour la FIR Madrid (LECM) :
 
Orages noyés dans la masse
LECM SIGMET 16 VALID 182123/182400 LEVA
LECM MADRID FIR/UIR EMBD TS FCST WI N3830 W00410 - N3750 W00410 - N3750 W00240 - N3830 W00240 - N3830 W00410 TOP FL380 MOV E 10KT NC=
Turbulence forte
LECM SIGMET 15 VALID 182026/182400 LEVA
LECM MADRID FIR/UIR SEV TURB FCST N OF LINE N4110 W00630 - N4110 W002 FL200/360 MOV E 20KT NC=



MET'MAP, la Météo Aéronautique d'un coup d'oeil ! - Copyright ORBIFLY Décembre 2007 - Disclaimer

ORBIFLY MET'MAP TEAM :

Programmation & Développement : Alexandra Zaïnal
Conception & Développement : Baudouin d'Aumeries
Co-Programmation & Développement : Marc-Olivier Méhu
Soutien technique & logistique : Manuel Goepfert

Contact : metmap@orbifly.com




SOURCES & CREDITS :

   NOAA